Terminal Aerodrome Forecast
Issued by NWS Wilmington, OH

Current Version | Previous Version | Graphics & Text | Print | Product List | Glossary On
Versions: 1 2 3 4 5 6 7 8 9 10 11 12 13 14 15 16 17 18 19 20 21 22 23 24 25 26 27 28 29 30 31 32 33
131
FTUS41 KILN 021410 AAA
TAFCVG
TAF AMD
KCVG 021410Z 0214/0318 28008KT P6SM SCT025 BKN040
      TEMPO 0214/0216 BKN022
     FM021600 32008KT P6SM BKN040
     FM030100 36005KT P6SM SCT020 OVC045
     FM030800 36004KT 4SM BR OVC050
      TEMPO 0309/0313 2SM BR SCT070
     FM031300 32005KT P6SM VCSH SCT010 BKN060=

USA.gov is the U.S. government's official web portal to all federal, state and local government web resources and services.